Time;durP1;ratioP1;P1;durP2;ratioP2;P2;SDS_P1;SDS_P2;PMS_P1;PMS_P2;Temp;Humidity;BMP_temperature;BMP_pressure;BME280_temperature;BME280_humidity;BME280_pressure;Samples;Min_cycle;Max_cycle;Signal;HPM_P1;HPM_P2
2024/04/13 00:01:19;;;;;;;3.70;1.10;;;;;;;15.16;99.38;102019.06;5562992;25;20509;-68
2024/04/13 00:03:47;;;;;;;2.90;1.00;;;;;;;15.16;99.60;102029.19;5553350;25;20563;-67
2024/04/13 00:06:13;;;;;;;3.13;1.03;;;;;;;15.13;98.55;102016.94;5530564;25;20475;-67
2024/04/13 00:08:42;;;;;;;3.00;1.10;;;;;;;15.14;99.26;102018.56;5554326;25;20582;-68
2024/04/13 00:11:08;;;;;;;2.67;1.07;;;;;;;15.06;98.35;102009.13;5559077;25;20272;-68
2024/04/13 00:13:39;;;;;;;3.37;1.17;;;;;;;15.02;97.40;102007.28;5532581;25;20580;-67
2024/04/13 00:16:05;;;;;;;2.50;0.70;;;;;;;15.00;97.71;102004.03;5530402;25;20522;-67
2024/04/13 00:18:34;;;;;;;2.77;0.93;;;;;;;14.94;97.28;101997.03;5532873;25;20462;-67
2024/04/13 00:21:00;;;;;;;3.37;1.10;;;;;;;14.93;98.28;102003.59;5547773;25;20474;-68
2024/04/13 00:23:30;;;;;;;3.10;1.10;;;;;;;14.93;99.90;101990.78;5565418;25;21116;-68
2024/04/13 00:25:56;;;;;;;2.27;0.67;;;;;;;14.94;99.72;101995.09;5565645;25;20468;-68
2024/04/13 00:28:24;;;;;;;3.07;0.93;;;;;;;14.93;99.85;102000.88;5548391;25;20463;-68
2024/04/13 00:30:53;;;;;;;2.73;1.20;;;;;;;14.92;100.00;101996.50;5536018;25;20958;-68
2024/04/13 00:33:21;;;;;;;3.33;0.90;;;;;;;14.91;100.00;102000.34;5550023;25;20824;-68
2024/04/13 00:35:47;;;;;;;2.67;0.83;;;;;;;14.86;100.00;101993.84;5550681;25;20455;-68
2024/04/13 00:38:15;;;;;;;2.80;0.90;;;;;;;14.88;100.00;101988.13;5544566;25;20469;-68
2024/04/13 00:40:42;;;;;;;2.83;0.97;;;;;;;14.93;100.00;101990.78;5545029;25;20231;-68
2024/04/13 00:43:11;;;;;;;3.50;0.97;;;;;;;14.96;100.00;101983.88;5549638;25;20463;-68
2024/04/13 00:45:42;;;;;;;3.60;1.30;;;;;;;14.97;100.00;101977.34;5527815;25;20859;-68
2024/04/13 00:48:14;;;;;;;3.23;1.27;;;;;;;14.94;100.00;101983.38;5528098;25;20459;-68
2024/04/13 00:50:43;;;;;;;3.40;1.37;;;;;;;14.99;100.00;101980.59;5534323;25;20467;-68
2024/04/13 00:53:13;;;;;;;3.10;1.03;;;;;;;14.96;100.00;101965.59;5550705;25;20466;-68
2024/04/13 00:55:40;;;;;;;4.33;1.33;;;;;;;14.99;100.00;101975.13;5526994;26;20978;-68
2024/04/13 00:58:08;;;;;;;3.10;0.97;;;;;;;14.98;100.00;101968.84;5549961;25;20457;-68
2024/04/13 01:00:34;;;;;;;2.87;1.03;;;;;;;14.98;100.00;101973.50;5562027;25;20505;-68
2024/04/13 01:03:03;;;;;;;3.37;1.13;;;;;;;15.00;100.00;101972.09;5542222;25;20469;-68
2024/04/13 01:05:32;;;;;;;2.80;0.90;;;;;;;15.06;100.00;101970.13;5563280;25;21059;-68
2024/04/13 01:08:00;;;;;;;2.83;1.10;;;;;;;15.04;100.00;101966.84;5532129;25;20453;-68
2024/04/13 01:10:27;;;;;;;2.50;0.83;;;;;;;15.03;100.00;101976.16;5538506;25;20997;-68
2024/04/13 01:12:55;;;;;;;3.60;1.07;;;;;;;15.04;100.00;101978.56;5541506;25;20465;-68
2024/04/13 01:15:26;;;;;;;2.80;1.00;;;;;;;15.06;99.88;101967.38;5563949;25;20510;-69
2024/04/13 01:17:56;;;;;;;2.60;0.70;;;;;;;15.07;100.00;101974.44;5564559;25;20449;-68
2024/04/13 01:20:21;;;;;;;10.33;1.17;;;;;;;15.11;100.00;101972.75;5512983;25;20468;-68
2024/04/13 01:22:54;;;;;;;3.10;1.27;;;;;;;15.09;99.90;101981.22;5543491;25;20824;-68
2024/04/13 01:25:22;;;;;;;2.33;0.80;;;;;;;15.08;99.48;101979.59;5550775;25;20234;-68
2024/04/13 01:27:51;;;;;;;4.10;1.67;;;;;;;15.06;99.03;101975.56;5538560;25;20798;-68
2024/04/13 01:30:19;;;;;;;3.00;1.10;;;;;;;15.00;97.92;101974.00;5527215;25;20506;-68
2024/04/13 01:32:48;;;;;;;3.37;1.00;;;;;;;15.00;97.98;101979.47;5527039;26;20467;-68
2024/04/13 01:35:14;;;;;;;3.43;1.50;;;;;;;14.95;99.06;101976.81;5537998;25;20461;-68
2024/04/13 01:37:43;;;;;;;3.40;1.10;;;;;;;14.91;99.55;101981.25;5549575;25;20508;-68
2024/04/13 01:40:12;;;;;;;2.73;0.90;;;;;;;14.87;99.61;101981.03;5530501;25;20252;-68
2024/04/13 01:42:41;;;;;;;2.93;1.30;;;;;;;14.91;100.00;101986.69;5527035;25;20519;-68
2024/04/13 01:45:09;;;;;;;2.40;0.70;;;;;;;14.88;99.95;101991.66;5529140;25;20474;-68
2024/04/13 01:47:35;;;;;;;2.70;0.80;;;;;;;14.83;100.00;101986.28;5526936;26;20814;-68
2024/04/13 01:50:03;;;;;;;3.30;1.00;;;;;;;14.84;100.00;101990.63;5531438;25;20506;-68
2024/04/13 01:52:29;;;;;;;3.33;1.20;;;;;;;14.82;100.00;101992.81;5537975;25;20230;-68
2024/04/13 01:54:58;;;;;;;3.83;1.87;;;;;;;14.84;100.00;101990.63;5527051;26;20506;-68
2024/04/13 01:57:23;;;;;;;3.80;1.47;;;;;;;14.81;100.00;101998.56;5529036;25;20515;-68
2024/04/13 01:59:54;;;;;;;3.73;1.30;;;;;;;14.79;100.00;101992.63;5528987;25;20459;-68
2024/04/13 02:02:20;;;;;;;3.43;1.37;;;;;;;14.79;100.00;101992.63;5537813;25;20268;-68
2024/04/13 02:04:48;;;;;;;2.97;1.10;;;;;;;14.72;100.00;101992.97;5550653;25;20457;-68
2024/04/13 02:07:14;;;;;;;2.63;1.07;;;;;;;14.69;100.00;102004.47;5541578;25;20337;-68
2024/04/13 02:09:42;;;;;;;3.63;1.30;;;;;;;14.62;100.00;102004.03;5526666;25;21001;-68
2024/04/13 02:12:08;;;;;;;3.83;1.50;;;;;;;14.60;100.00;102000.75;5534794;25;20569;-68
2024/04/13 02:14:37;;;;;;;4.20;1.60;;;;;;;14.60;100.00;101990.66;5541839;25;20577;-68
2024/04/13 02:17:05;;;;;;;3.00;1.20;;;;;;;14.58;100.00;101997.53;5543250;25;20511;-68
2024/04/13 02:19:33;;;;;;;4.13;1.70;;;;;;;14.53;100.00;101997.59;5535476;25;20459;-68
2024/04/13 02:22:00;;;;;;;2.90;1.30;;;;;;;14.47;100.00;101998.72;5543098;25;21053;-68
2024/04/13 02:24:29;;;;;;;2.70;1.17;;;;;;;14.42;100.00;101996.88;5533612;25;20926;-68
2024/04/13 02:26:55;;;;;;;3.07;1.33;;;;;;;14.39;100.00;101990.13;5526362;26;20623;-68
2024/04/13 02:29:25;;;;;;;4.10;1.37;;;;;;;14.35;100.00;101991.00;5535455;25;20493;-68
2024/04/13 02:31:51;;;;;;;4.40;1.67;;;;;;;14.31;100.00;101985.31;5560681;25;20251;-68
2024/04/13 02:34:22;;;;;;;3.10;1.10;;;;;;;14.26;100.00;101993.56;5545120;25;20470;-68
2024/04/13 02:36:47;;;;;;;2.83;1.10;;;;;;;14.23;100.00;101996.84;5528503;25;20318;-68
2024/04/13 02:39:18;;;;;;;3.67;1.17;;;;;;;14.16;100.00;101985.47;5526137;25;20454;-68
2024/04/13 02:41:44;;;;;;;3.23;1.03;;;;;;;14.10;100.00;101986.66;5550111;25;20268;-68
2024/04/13 02:44:12;;;;;;;3.97;1.40;;;;;;;14.03;100.00;101975.28;5541118;20;20521;-66
2024/04/13 02:46:38;;;;;;;3.37;1.10;;;;;;;13.95;100.00;101976.75;5525173;26;20860;-64
2024/04/13 02:49:06;;;;;;;2.87;1.03;;;;;;;13.89;100.00;101969.72;5526054;25;20526;-64
2024/04/13 02:51:35;;;;;;;3.13;1.27;;;;;;;13.83;100.00;101971.69;5525734;25;20631;-64
2024/04/13 02:54:03;;;;;;;3.00;1.00;;;;;;;13.74;100.00;101961.72;5524583;25;20538;-64
2024/04/13 02:56:29;;;;;;;3.60;1.10;;;;;;;13.66;100.00;101959.63;5525313;25;20479;-63
2024/04/13 02:58:57;;;;;;;2.50;1.00;;;;;;;13.60;100.00;101951.50;5526151;25;20571;-64
2024/04/13 03:01:23;;;;;;;3.77;1.33;;;;;;;13.57;100.00;101946.63;5525748;25;20265;-63
2024/04/13 03:03:51;;;;;;;3.67;1.60;;;;;;;13.56;100.00;101960.53;5525340;25;20467;-64
2024/04/13 03:06:17;;;;;;;3.83;1.43;;;;;;;13.57;100.00;101956.69;5524956;25;22026;-64
2024/04/13 03:08:50;;;;;;;3.77;1.37;;;;;;;13.63;100.00;101958.25;5525593;25;20811;-64
2024/04/13 03:11:17;;;;;;;2.70;1.10;;;;;;;13.65;100.00;101966.97;5525715;25;20575;-64
2024/04/13 03:13:46;;;;;;;3.47;1.53;;;;;;;13.69;100.00;101954.41;5524778;25;20471;-64
2024/04/13 03:16:12;;;;;;;3.60;1.00;;;;;;;13.68;100.00;101952.78;5525191;25;21099;-66
2024/04/13 03:18:41;;;;;;;4.50;1.67;;;;;;;13.64;100.00;101965.34;5526158;25;20521;-64
2024/04/13 03:21:07;;;;;;;3.63;1.30;;;;;;;13.63;100.00;101956.38;5529129;25;20519;-63
2024/04/13 03:23:36;;;;;;;3.37;1.23;;;;;;;13.62;100.00;101967.53;5528752;25;20885;-63
2024/04/13 03:26:04;;;;;;;3.50;1.10;;;;;;;13.63;100.00;101961.81;5529119;25;20230;-63
2024/04/13 03:28:35;;;;;;;3.60;1.67;;;;;;;13.65;100.00;101966.16;5529189;25;20579;-63
2024/04/13 03:31:01;;;;;;;4.03;1.67;;;;;;;13.60;100.00;101970.56;5528894;25;20471;-63
2024/04/13 03:33:29;;;;;;;4.57;1.90;;;;;;;13.57;100.00;101973.84;5528950;25;20462;-63
2024/04/13 03:35:59;;;;;;;3.87;1.73;;;;;;;13.54;100.00;101968.97;5529021;25;20587;-63
2024/04/13 03:38:27;;;;;;;3.00;1.10;;;;;;;13.53;100.00;101966.53;5528873;25;20815;-63
2024/04/13 03:41:02;;;;;;;3.77;1.40;;;;;;;13.51;100.00;101963.31;5511891;26;20511;-63
2024/04/13 03:43:30;;;;;;;3.20;1.33;;;;;;;13.55;100.00;101961.63;5528802;25;20521;-63
2024/04/13 03:45:59;;;;;;;3.80;1.30;;;;;;;13.57;100.00;101968.41;5528745;25;20530;-63
2024/04/13 03:48:25;;;;;;;2.80;1.10;;;;;;;13.56;100.00;101966.78;5529292;25;20459;-63
2024/04/13 03:50:53;;;;;;;4.00;1.57;;;;;;;13.56;100.00;101964.06;5528222;25;20510;-63
2024/04/13 03:53:19;;;;;;;2.67;1.03;;;;;;;13.54;100.00;101963.53;5528945;25;20296;-63
2024/04/13 03:55:47;;;;;;;3.50;1.57;;;;;;;13.55;100.00;101973.34;5528975;25;20582;-63
2024/04/13 03:58:13;;;;;;;3.50;1.50;;;;;;;13.49;100.00;101968.22;5528365;25;20341;-63
2024/04/13 04:00:44;;;;;;;3.17;1.20;;;;;;;13.49;100.00;101963.56;5528429;25;20466;-63
2024/04/13 04:03:10;;;;;;;3.60;1.70;;;;;;;13.46;100.00;101958.72;5528898;25;20233;-63
2024/04/13 04:05:38;;;;;;;4.57;1.77;;;;;;;13.42;100.00;101965.03;5528081;25;20877;-63
2024/04/13 04:08:06;;;;;;;5.37;2.00;;;;;;;13.38;100.00;101960.16;5528487;25;20514;-63
2024/04/13 04:10:35;;;;;;;5.27;2.17;;;;;;;13.36;100.00;101962.31;5528308;25;20447;-63
2024/04/13 04:13:02;;;;;;;3.67;1.70;;;;;;;13.33;100.00;101962.91;5526164;26;20527;-64
2024/04/13 04:15:30;;;;;;;4.50;2.00;;;;;;;13.33;100.00;101962.91;5528465;25;21005;-63
2024/04/13 04:17:58;;;;;;;4.77;2.30;;;;;;;13.30;100.00;101959.94;5528090;25;20462;-64
2024/04/13 04:20:27;;;;;;;5.53;2.30;;;;;;;13.28;100.00;101962.13;5528056;25;20860;-62
2024/04/13 04:22:52;;;;;;;5.80;2.43;;;;;;;13.24;100.00;101959.19;5527629;25;20478;-64
2024/04/13 04:25:22;;;;;;;4.13;1.83;;;;;;;13.24;100.00;101959.19;5528332;25;20514;-66
2024/04/13 04:27:48;;;;;;;5.07;2.33;;;;;;;13.23;100.00;101962.16;5527491;25;20349;-66
2024/04/13 04:30:17;;;;;;;6.27;2.20;;;;;;;13.24;100.00;101964.63;5527076;25;20507;-66
2024/04/13 04:32:43;;;;;;;8.10;2.00;;;;;;;13.26;100.00;101961.63;5527209;25;20994;-66
2024/04/13 04:35:14;;;;;;;7.87;3.47;;;;;;;13.25;100.00;101960.00;5528025;25;20588;-66
2024/04/13 04:37:40;;;;;;;6.80;2.70;;;;;;;13.30;100.00;101957.22;5527531;25;20273;-64
2024/04/13 04:40:10;;;;;;;8.30;4.00;;;;;;;13.36;100.00;101956.06;5528070;25;20827;-63
2024/04/13 04:42:36;;;;;;;7.60;3.67;;;;;;;13.36;100.00;101956.88;5527753;25;20242;-63
2024/04/13 04:45:05;;;;;;;7.73;3.47;;;;;;;13.32;100.00;101955.81;5527075;25;20526;-64
2024/04/13 04:47:32;;;;;;;7.80;3.80;;;;;;;13.35;100.00;101957.19;5527471;25;21009;-66
2024/04/13 04:50:01;;;;;;;5.97;2.80;;;;;;;13.35;100.00;101962.63;5528125;25;20576;-66
2024/04/13 04:52:29;;;;;;;7.97;2.80;;;;;;;13.36;100.00;101956.88;5527659;25;20467;-66
2024/04/13 04:55:00;;;;;;;5.50;2.50;;;;;;;13.41;100.00;101966.09;5527293;25;20451;-66
2024/04/13 04:57:27;;;;;;;9.97;3.80;;;;;;;13.48;100.00;101970.13;5527470;25;20515;-66
2024/04/13 04:59:55;;;;;;;7.83;3.00;;;;;;;13.53;100.00;101977.44;5527787;25;20454;-67
2024/04/13 05:02:21;;;;;;;7.03;3.40;;;;;;;13.60;100.00;101973.28;5527351;25;20459;-67
2024/04/13 05:04:49;;;;;;;14.17;4.10;;;;;;;13.68;100.00;101979.19;5527419;25;20522;-67
2024/04/13 05:07:15;;;;;;;9.70;3.97;;;;;;;13.74;100.00;101965.25;5526721;26;20226;-65
2024/04/13 05:09:46;;;;;;;8.73;4.23;;;;;;;13.82;100.00;101974.69;5527043;25;21087;-67
2024/04/13 05:12:11;;;;;;;6.67;3.30;;;;;;;13.87;100.00;101978.19;5527187;25;20748;-65
2024/04/13 05:14:40;;;;;;;6.93;3.73;;;;;;;13.89;100.00;101975.97;5527298;25;20467;-65
2024/04/13 05:17:06;;;;;;;9.10;4.27;;;;;;;13.90;100.00;101976.81;5520031;25;20284;-65
2024/04/13 05:19:35;;;;;;;10.33;4.00;;;;;;;13.96;100.00;101974.81;5522688;25;20451;-65
2024/04/13 05:22:04;;;;;;;7.27;3.40;;;;;;;14.01;100.00;101963.88;5527565;25;20214;-65
2024/04/13 05:24:33;;;;;;;7.57;4.10;;;;;;;14.07;100.00;101965.41;5521228;25;20975;-65
2024/04/13 05:27:05;;;;;;;7.73;3.60;;;;;;;14.11;100.00;101967.28;5524884;26;20459;-65
2024/04/13 05:29:35;;;;;;;8.20;3.77;;;;;;;14.19;100.00;101974.00;5526786;25;20883;-65
2024/04/13 05:32:01;;;;;;;8.07;4.20;;;;;;;14.21;100.00;101962.78;5521605;25;20550;-65
2024/04/13 05:34:30;;;;;;;8.97;3.93;;;;;;;14.23;100.00;101968.78;5513075;26;20519;-65
2024/04/13 05:36:55;;;;;;;6.63;3.33;;;;;;;14.28;100.00;101969.53;5526755;26;20471;-65
2024/04/13 05:39:24;;;;;;;6.10;3.60;;;;;;;14.32;100.00;101970.56;5526561;25;20506;-65
2024/04/13 05:41:49;;;;;;;9.60;4.03;;;;;;;14.38;100.00;101971.31;5521312;25;20222;-65
2024/04/13 05:44:20;;;;;;;12.63;3.30;;;;;;;14.44;100.00;101980.25;5509107;26;20530;-65
2024/04/13 05:46:46;;;;;;;6.73;3.30;;;;;;;14.51;100.00;101976.06;5518174;26;20227;-65
2024/04/13 05:49:14;;;;;;;13.70;3.80;;;;;;;14.62;100.00;101987.66;5519731;26;20459;-65
2024/04/13 05:51:40;;;;;;;8.37;4.50;;;;;;;14.74;100.00;101984.47;5513449;26;20231;-66
2024/04/13 05:54:08;;;;;;;7.80;3.97;;;;;;;14.79;100.00;101978.97;5510528;26;21109;-66
2024/04/13 05:56:34;;;;;;;9.73;4.47;;;;;;;14.85;100.00;101973.13;5499737;26;20270;-65
2024/04/13 05:59:02;;;;;;;9.03;4.03;;;;;;;14.94;100.00;101972.47;5524374;25;20986;-66
2024/04/13 06:01:31;;;;;;;7.60;4.17;;;;;;;14.99;100.00;101959.56;5520910;26;20268;-65
2024/04/13 06:03:59;;;;;;;11.57;4.47;;;;;;;15.00;100.00;101952.97;5523687;25;21064;-66
2024/04/13 06:06:25;;;;;;;9.73;3.60;;;;;;;14.98;100.00;101957.13;5509652;25;20501;-65
2024/04/13 06:08:53;;;;;;;8.53;4.13;;;;;;;15.02;100.00;101967.16;5526139;25;20459;-65
2024/04/13 06:11:19;;;;;;;6.63;3.57;;;;;;;15.06;100.00;101964.66;5526872;25;20230;-65
2024/04/13 06:13:47;;;;;;;6.27;3.30;;;;;;;15.11;100.00;101978.22;5526332;25;21088;-66
2024/04/13 06:16:13;;;;;;;8.70;3.70;;;;;;;15.17;100.00;101977.00;5521286;25;20623;-64
2024/04/13 06:18:44;;;;;;;8.20;3.57;;;;;;;15.28;100.00;101972.22;5506197;26;20507;-65
2024/04/13 06:21:10;;;;;;;8.27;4.13;;;;;;;15.34;100.00;101977.28;5511952;26;20269;-66
2024/04/13 06:23:38;;;;;;;7.47;3.97;;;;;;;15.41;100.00;101976.91;5524496;25;20817;-65
2024/04/13 06:26:05;;;;;;;9.50;4.00;;;;;;;15.49;100.00;101978.94;5523171;25;20474;-66
2024/04/13 06:28:33;;;;;;;7.53;3.83;;;;;;;15.61;100.00;101981.19;5524846;25;20510;-65
2024/04/13 06:30:59;;;;;;;9.20;3.30;;;;;;;15.69;100.00;101983.25;5524841;25;20467;-64
2024/04/13 06:33:27;;;;;;;5.57;3.00;;;;;;;15.85;100.00;101981.06;5516112;26;20540;-65
2024/04/13 06:35:55;;;;;;;6.87;3.43;;;;;;;15.92;100.00;101980.66;5522886;26;20269;-64
2024/04/13 06:38:26;;;;;;;6.50;3.33;;;;;;;16.05;100.00;101966.19;5524564;25;20467;-65
2024/04/13 06:40:52;;;;;;;7.30;3.50;;;;;;;16.21;98.08;101959.31;5525335;26;20526;-64
2024/04/13 06:43:20;;;;;;;8.83;4.73;;;;;;;16.31;97.21;101959.06;5525774;25;20462;-64
2024/04/13 06:45:46;;;;;;;11.27;4.10;;;;;;;16.34;96.49;101955.75;5519943;25;20342;-64
2024/04/13 06:48:15;;;;;;;9.20;3.63;;;;;;;16.45;96.66;101953.56;5524319;26;20458;-64
2024/04/13 06:50:43;;;;;;;7.73;3.03;;;;;;;16.52;96.16;101944.97;5523291;25;20518;-64
2024/04/13 06:53:14;;;;;;;9.50;4.30;;;;;;;16.65;95.28;101949.59;5526025;26;20522;-64
2024/04/13 06:55:39;;;;;;;8.73;4.20;;;;;;;16.67;95.34;101936.41;5527874;25;20478;-64
2024/04/13 06:58:08;;;;;;;9.80;3.50;;;;;;;16.76;94.47;101934.56;5527574;25;20462;-64
2024/04/13 07:00:34;;;;;;;11.53;4.43;;;;;;;16.86;93.24;101945.28;5521293;26;20234;-64
2024/04/13 07:03:04;;;;;;;7.60;3.80;;;;;;;17.03;92.38;101961.03;5524991;25;20527;-65
2024/04/13 07:05:29;;;;;;;6.20;3.47;;;;;;;17.12;91.15;101952.88;5529216;25;20333;-64
2024/04/13 07:07:57;;;;;;;7.90;3.53;;;;;;;17.19;90.62;101966.16;5528764;25;20466;-64
2024/04/13 07:10:26;;;;;;;11.60;3.93;;;;;;;17.27;90.02;101955.25;5523236;25;20269;-64
2024/04/13 07:12:54;;;;;;;10.63;3.60;;;;;;;17.35;90.12;101946.28;5517349;26;20478;-64
2024/04/13 07:15:20;;;;;;;10.00;3.27;;;;;;;17.50;90.17;101941.50;5501993;26;20460;-64
2024/04/13 07:17:48;;;;;;;7.90;3.90;;;;;;;17.57;89.48;101942.66;5492085;26;20444;-64
2024/04/13 07:20:14;;;;;;;7.77;2.90;;;;;;;17.69;88.54;101946.75;5492147;26;20324;-68
2024/04/13 07:22:42;;;;;;;7.50;3.50;;;;;;;17.80;87.28;101945.41;5515295;26;20890;-65
2024/04/13 07:25:07;;;;;;;6.97;3.67;;;;;;;17.89;85.81;101944.31;5528677;26;20226;-64
2024/04/13 07:27:38;;;;;;;14.80;3.40;;;;;;;17.94;86.31;101948.03;5527145;25;20510;-64
2024/04/13 07:30:05;;;;;;;5.20;2.70;;;;;;;17.99;86.92;101939.66;5526846;25;20242;-64
2024/04/13 07:32:34;;;;;;;6.00;3.17;;;;;;;18.10;86.24;101941.75;5527033;25;20534;-64
2024/04/13 07:34:59;;;;;;;10.60;4.07;;;;;;;18.23;84.78;101937.28;5528329;26;20515;-64
2024/04/13 07:37:27;;;;;;;10.13;4.37;;;;;;;18.27;85.55;101930.03;5528415;25;20454;-64
2024/04/13 07:39:53;;;;;;;7.90;3.70;;;;;;;18.32;84.38;101924.38;5528596;26;20230;-64
2024/04/13 07:42:21;;;;;;;10.97;3.20;;;;;;;18.40;85.03;101931.81;5528625;25;20499;-64
2024/04/13 07:44:50;;;;;;;8.73;3.90;;;;;;;18.41;84.15;101930.69;5526629;25;20246;-64
2024/04/13 07:47:18;;;;;;;11.40;3.83;;;;;;;18.37;83.21;101929.75;5526383;25;20820;-64
2024/04/13 07:50:42;;;;;;;8.90;3.73;;;;;;;18.41;82.32;101930.69;5525985;25;20470;-64
2024/04/13 07:53:08;;;;;;;12.53;4.10;;;;;;;18.36;83.20;101930.03;5519525;26;20470;-64
2024/04/13 07:55:36;;;;;;;6.20;3.17;;;;;;;18.39;83.03;101935.69;5519964;26;20608;-64
2024/04/13 07:58:02;;;;;;;11.87;3.37;;;;;;;18.45;82.47;101935.53;5528210;25;20620;-65
2024/04/13 08:00:33;;;;;;;8.73;3.27;;;;;;;18.47;82.76;101938.78;5528030;25;20576;-64
2024/04/13 08:02:59;;;;;;;7.63;3.63;;;;;;;18.51;81.44;101945.25;5527899;25;20524;-65
2024/04/13 08:05:27;;;;;;;9.20;3.77;;;;;;;18.60;80.32;101944.13;5527092;25;20451;-64
2024/04/13 08:07:53;;;;;;;6.83;3.60;;;;;;;18.66;80.32;101922.81;5528408;25;20260;-64
2024/04/13 08:10:22;;;;;;;7.07;3.27;;;;;;;18.63;80.17;101929.72;5528186;25;20466;-64
2024/04/13 08:12:47;;;;;;;6.80;2.40;;;;;;;18.63;80.76;101937.97;5528452;25;20242;-64
2024/04/13 08:15:16;;;;;;;7.07;2.60;;;;;;;18.63;79.50;101939.91;5528326;25;20459;-64
2024/04/13 08:17:44;;;;;;;7.20;2.30;;;;;;;18.51;79.71;101939.75;5528480;25;20594;-64
2024/04/13 08:20:12;;;;;;;5.40;2.67;;;;;;;18.40;79.34;101933.75;5528395;25;20447;-64
2024/04/13 08:22:38;;;;;;;5.33;2.23;;;;;;;18.48;79.98;101937.66;5528303;25;20459;-64
2024/04/13 08:25:07;;;;;;;5.60;2.27;;;;;;;18.54;79.10;101944.59;5528042;25;20510;-65
2024/04/13 08:27:34;;;;;;;5.60;2.73;;;;;;;18.60;78.50;101935.88;5528149;25;20230;-64
2024/04/13 08:30:02;;;;;;;5.63;2.30;;;;;;;18.64;79.03;101942.34;5528425;25;20451;-64
2024/04/13 08:32:28;;;;;;;6.13;2.47;;;;;;;18.80;78.29;101928.16;5528293;25;20515;-64
2024/04/13 08:34:59;;;;;;;5.13;2.77;;;;;;;18.90;77.84;101936.88;5528326;25;20954;-64
2024/04/13 08:37:24;;;;;;;6.13;2.13;;;;;;;18.96;76.32;101939.47;5532328;25;20287;-65
2024/04/13 08:39:53;;;;;;;8.20;3.10;;;;;;;19.03;75.42;101939.75;5531772;25;20887;-64
2024/04/13 08:42:25;;;;;;;5.87;2.70;;;;;;;19.06;75.15;101937.19;5528372;25;20214;-65
2024/04/13 08:44:54;;;;;;;6.33;2.17;;;;;;;18.98;77.27;101938.00;5500108;20;20513;-65
2024/04/13 08:47:22;;;;;;;6.30;2.47;;;;;;;18.96;74.91;101936.72;5441887;26;20520;-64
2024/04/13 08:49:53;;;;;;;8.13;2.60;;;;;;;19.05;75.43;101937.50;5444224;26;21115;-65
2024/04/13 08:52:22;;;;;;;8.97;2.10;;;;;;;19.19;75.41;101934.59;5441639;26;20467;-65
2024/04/13 08:54:50;;;;;;;6.17;2.67;;;;;;;19.32;75.45;101936.31;5410075;26;20573;-65
2024/04/13 08:57:22;;;;;;;4.30;2.93;;;;;;;19.41;73.29;101934.38;5410598;26;21073;-67
2024/04/13 08:59:51;;;;;;;7.07;2.83;;;;;;;19.47;73.51;101924.00;5408486;26;20463;-67
2024/04/13 09:02:23;;;;;;;5.27;3.10;;;;;;;19.59;72.96;101932.34;5410262;26;20589;-69
2024/04/13 09:04:52;;;;;;;5.73;2.43;;;;;;;19.64;73.55;101926.72;5408517;26;20557;-69
2024/04/13 09:07:21;;;;;;;5.97;2.20;;;;;;;19.67;72.75;101926.06;5438682;26;20470;-67
2024/04/13 09:09:50;;;;;;;7.90;3.07;;;;;;;19.62;73.15;101921.56;5438371;26;20616;-66
2024/04/13 09:12:16;;;;;;;5.80;2.63;;;;;;;19.61;73.40;101921.84;5443982;26;20514;-67
2024/04/13 09:14:45;;;;;;;5.33;2.40;;;;;;;19.64;72.67;101913.75;5443892;26;20525;-66
2024/04/13 09:17:11;;;;;;;7.90;2.80;;;;;;;19.71;71.15;101921.50;5443622;26;20499;-67
2024/04/13 09:19:39;;;;;;;4.23;2.30;;;;;;;19.81;70.44;101918.38;5441497;26;20461;-67
2024/04/13 09:22:07;;;;;;;7.13;3.37;;;;;;;19.92;69.24;101916.06;5408247;26;21018;-67
2024/04/13 09:24:44;;;;;;;8.03;2.80;;;;;;;19.96;69.10;101903.25;5408091;26;20503;-67
2024/04/13 09:27:15;;;;;;;6.77;2.40;;;;;;;19.96;69.51;101905.19;5408299;26;20463;-67
2024/04/13 09:29:44;;;;;;;7.50;2.47;;;;;;;19.98;69.77;101901.00;5408149;26;20503;-67
2024/04/13 09:32:19;;;;;;;4.53;2.13;;;;;;;20.00;70.47;101893.19;5410283;26;20523;-68
2024/04/13 09:34:48;;;;;;;4.70;2.43;;;;;;;20.07;70.42;101893.50;5407972;26;20910;-68
2024/04/13 09:37:15;;;;;;;6.67;2.70;;;;;;;20.10;70.15;101886.53;5407949;26;20854;-68
2024/04/13 09:39:46;;;;;;;6.37;2.70;;;;;;;20.14;70.18;101876.44;5407893;26;20467;-67
2024/04/13 09:42:13;;;;;;;4.10;2.00;;;;;;;20.26;69.20;101882.03;5424442;26;20801;-68
2024/04/13 09:44:43;;;;;;;6.20;3.03;;;;;;;20.28;68.57;101888.00;5454040;26;20516;-67
2024/04/13 09:47:09;;;;;;;5.10;2.57;;;;;;;20.35;68.76;101891.00;5479881;26;20452;-68
2024/04/13 09:49:37;;;;;;;5.57;2.97;;;;;;;20.46;67.61;101883.19;5479762;26;20512;-67
2024/04/13 09:52:03;;;;;;;4.17;1.80;;;;;;;20.49;67.63;101878.97;5479760;26;20215;-67
2024/04/13 09:54:32;;;;;;;5.03;2.13;;;;;;;20.49;67.65;101885.28;5479636;26;20516;-70
2024/04/13 09:57:00;;;;;;;13.37;2.60;;;;;;;20.53;68.15;101890.91;5476468;26;20460;-67
2024/04/13 09:59:30;;;;;;;4.60;2.10;;;;;;;20.68;66.87;101887.56;5479572;26;20452;-68
2024/04/13 10:01:56;;;;;;;4.60;2.47;;;;;;;20.80;66.34;101887.59;5476984;26;21055;-67
2024/04/13 10:04:24;;;;;;;7.37;2.00;;;;;;;20.88;66.13;101889.44;5479029;26;20460;-67
2024/04/13 10:06:51;;;;;;;4.70;2.20;;;;;;;20.96;64.35;101878.69;5450645;26;20325;-67
2024/04/13 10:09:22;;;;;;;4.20;2.30;;;;;;;20.94;64.73;101887.31;5456302;26;20471;-67
2024/04/13 10:11:52;;;;;;;5.10;2.77;;;;;;;20.92;64.65;101887.63;5489861;26;20460;-67
2024/04/13 10:14:25;;;;;;;6.23;3.07;;;;;;;20.97;64.64;101894.06;5484193;26;20477;-67
2024/04/13 10:16:53;;;;;;;5.03;2.30;;;;;;;21.09;64.00;101894.13;5478862;26;20536;-67
2024/04/13 10:19:23;;;;;;;4.27;2.50;;;;;;;21.16;61.54;101872.31;5478831;26;20843;-67
2024/04/13 10:21:49;;;;;;;5.23;1.70;;;;;;;21.18;60.27;101875.53;5453279;26;20474;-67
2024/04/13 10:24:17;;;;;;;10.53;2.40;;;;;;;21.19;61.09;101870.81;5443113;26;21062;-67
2024/04/13 10:26:43;;;;;;;3.97;1.90;;;;;;;21.11;61.87;101869.75;5445544;26;20224;-67
2024/04/13 10:29:11;;;;;;;4.13;1.77;;;;;;;21.02;62.00;101864.34;5445002;26;20503;-68
2024/04/13 10:31:40;;;;;;;5.03;2.30;;;;;;;21.03;61.37;101857.72;5446385;26;20592;-68
2024/04/13 10:34:08;;;;;;;4.50;1.77;;;;;;;21.04;61.14;101850.25;5446141;26;20474;-67
2024/04/13 10:36:35;;;;;;;3.47;1.70;;;;;;;21.25;61.51;101845.47;5446446;26;20510;-68
2024/04/13 10:39:05;;;;;;;5.53;2.07;;;;;;;21.41;61.43;101849.16;5450848;26;20465;-67
2024/04/13 10:41:32;;;;;;;3.60;1.50;;;;;;;21.64;60.56;101851.47;5446170;26;20510;-67
2024/04/13 10:44:01;;;;;;;3.60;1.43;;;;;;;21.75;61.58;101849.88;5445945;26;20525;-68
2024/04/13 10:46:26;;;;;;;7.13;2.13;;;;;;;21.87;60.22;101858.13;5446274;26;20510;-68
2024/04/13 10:48:57;;;;;;;3.20;1.70;;;;;;;21.74;60.36;101859.28;5457225;26;20456;-68
2024/04/13 10:51:23;;;;;;;4.80;1.90;;;;;;;21.73;59.11;101851.34;5482384;26;20319;-67
2024/04/13 10:53:52;;;;;;;4.37;1.50;;;;;;;21.80;59.90;101855.16;5482154;26;20472;-68
2024/04/13 10:56:18;;;;;;;3.13;1.23;;;;;;;21.97;58.88;101854.09;5482280;26;20806;-68
2024/04/13 10:58:46;;;;;;;3.10;1.00;;;;;;;22.09;59.20;101858.75;5481856;26;20503;-68
2024/04/13 11:01:11;;;;;;;4.03;1.20;;;;;;;22.19;54.83;101863.06;5461731;26;20270;-67
2024/04/13 11:03:40;;;;;;;4.10;1.30;;;;;;;22.17;55.14;101866.16;5445717;26;20461;-67
2024/04/13 11:06:10;;;;;;;4.20;1.30;;;;;;;22.25;54.86;101856.91;5445896;26;20833;-67
2024/04/13 11:08:38;;;;;;;2.60;0.90;;;;;;;22.22;55.53;101843.00;5445896;26;20510;-67
2024/04/13 11:11:04;;;;;;;3.57;1.50;;;;;;;22.15;54.70;101840.88;5451010;26;20579;-68
2024/04/13 11:13:32;;;;;;;3.87;1.50;;;;;;;22.29;53.69;101838.50;5482026;26;20558;-67
2024/04/13 11:15:58;;;;;;;3.30;1.20;;;;;;;22.53;54.20;101850.59;5481837;26;20258;-67
2024/04/13 11:18:26;;;;;;;3.20;0.93;;;;;;;22.81;52.75;101843.13;5481969;26;20464;-68
2024/04/13 11:20:58;;;;;;;2.57;0.83;;;;;;;23.30;52.67;101826.25;5472243;26;20228;-68
2024/04/13 11:23:30;;;;;;;2.97;1.00;;;;;;;23.87;50.54;101822.06;5446292;26;20571;-67
2024/04/13 11:25:56;;;;;;;3.20;1.10;;;;;;;24.36;47.15;101829.84;5445757;26;20461;-67